Dunkerton, IA

10:41 AM CDT on September 01, 2014 (GMT -0500)
Columbus Dr - Waterloo | Change Station
CLOSE
Current Station
Personal Weather Station
Location: Waterloo, IA
Elevation: 910 ft
Nearby Weather Stations

Elev 910 ft 42.47 °N, 92.34 °W | Updated 4 seconds ago

Overcast
Overcast
72.1 °F
Feels Like 71 °F
N
2.9
Wind Variable Wind from SSW
Gusts 7.0 mph

Today
High -- | Low -- °F
--% Chance of Precip.
Yesterday
High -- | Low -- °F
Precip. -- in
6:33 AM 7:42 PM
Waxing Crescent, 41% visible
Pressure 29.71 in
Visibility 10.0 miles
Clouds Mostly Cloudy 1700 ft
Overcast 2400 ft
Heat Index 71 °F
Dew Point 68 °F
Humidity 86%
Rainfall 0.74 in
Snow Depth Not available.
UV 1 out of 12
Pollen 2.80 out of 12
Air Quality Not available.
Flu Activity Not available.
METAR KALO 011454Z 26010KT 10SM BKN017 OVC024 22/19 A2972 RMK AO2 SLP059 60001 T02170189 53007 $

More Conditions Fewer Conditions

Pressure 29.71 in
Visibility 10.0 miles
Clouds Mostly Cloudy 1700 ft
Overcast 2400 ft
Heat Index 71 °F
Dew Point 68 °F
Humidity 86%
Rainfall 0.74 in
Snow Depth Not available.
UV 1 out of 12
Pollen 2.80 out of 12
Air Quality Not available.
Flu Activity Not available.
METAR KALO 011454Z 26010KT 10SM BKN017 OVC024 22/19 A2972 RMK AO2 SLP059 60001 T02170189 53007 $

More Conditions Fewer Conditions

10-Day Weather Forecast

Almanac

Astronomy

Sep. 01, 2014 Rise Set
Actual Time 6:33 AM CDT 7:42 PM CDT
Civil Twilight 6:04 AM CDT 8:11 PM CDT
Nautical Twilight 5:29 AM CDT 8:46 PM CDT
Astronomical Twilight 4:53 AM CDT 9:22 PM CDT
Moon 1:28 PM CDT 11:35 PM CDT
Length of Visible Light 14h 07m
Length of Day
13h 09m
Tomorrow will be 2m 47s shorter.
Waxing Crescent, 41% of the Moon is Illuminated
Today
Waxing Crescent
Sep 2
First Quarter
Sep 8
Full
Sep 15
Last Quarter
Sep 24
New

Today's Extremes

State Highs State Lows

Community

WunderPhotos

Upload Photos

1,749,276 photos uploaded!

Nearby

Snow Depth

Station Depth Elevation
No new snow has been reported.

Earthquake Activity

City Distance Mag. Time & Date
No recent earthquake activity has been reported nearby.
Minimum magnitude displayed is 2.5.

Coastal Water Temperatures

Place Temperature
No Stations Reporting

Nearby Weather Stations